sensor_id;sensor_type;location;lat;lon;timestamp;P1;durP1;ratioP1;P2;durP2;ratioP2
75890;SDS011;64571;47.512;19.054;2024-02-21T00:01:54;6.90;;;3.45;;
75890;SDS011;64571;47.512;19.054;2024-02-21T00:04:56;7.72;;;3.72;;
75890;SDS011;64571;47.512;19.054;2024-02-21T00:07:59;6.97;;;3.10;;
75890;SDS011;64571;47.512;19.054;2024-02-21T00:11:02;6.00;;;3.08;;
75890;SDS011;64571;47.512;19.054;2024-02-21T00:14:05;6.53;;;2.87;;
75890;SDS011;64571;47.512;19.054;2024-02-21T00:17:08;6.53;;;2.90;;
75890;SDS011;64571;47.512;19.054;2024-02-21T00:20:11;6.97;;;2.90;;
75890;SDS011;64571;47.512;19.054;2024-02-21T00:23:13;6.33;;;2.70;;
75890;SDS011;64571;47.512;19.054;2024-02-21T00:26:16;7.57;;;3.10;;
75890;SDS011;64571;47.512;19.054;2024-02-21T00:29:18;7.82;;;3.20;;
75890;SDS011;64571;47.512;19.054;2024-02-21T00:32:21;6.43;;;2.65;;
75890;SDS011;64571;47.512;19.054;2024-02-21T00:35:24;5.55;;;2.58;;
75890;SDS011;64571;47.512;19.054;2024-02-21T00:38:26;6.07;;;2.10;;
75890;SDS011;64571;47.512;19.054;2024-02-21T00:41:29;5.45;;;2.12;;
75890;SDS011;64571;47.512;19.054;2024-02-21T00:44:32;6.65;;;1.87;;
75890;SDS011;64571;47.512;19.054;2024-02-21T00:47:34;6.80;;;1.98;;
75890;SDS011;64571;47.512;19.054;2024-02-21T00:50:37;5.47;;;1.90;;
75890;SDS011;64571;47.512;19.054;2024-02-21T00:53:40;5.17;;;1.73;;
75890;SDS011;64571;47.512;19.054;2024-02-21T00:56:42;6.65;;;2.05;;
75890;SDS011;64571;47.512;19.054;2024-02-21T00:59:45;5.12;;;1.52;;
75890;SDS011;64571;47.512;19.054;2024-02-21T01:02:47;5.62;;;1.70;;
75890;SDS011;64571;47.512;19.054;2024-02-21T01:05:55;5.75;;;1.90;;
75890;SDS011;64571;47.512;19.054;2024-02-21T01:08:57;4.67;;;1.40;;
75890;SDS011;64571;47.512;19.054;2024-02-21T01:12:00;5.47;;;1.58;;
75890;SDS011;64571;47.512;19.054;2024-02-21T01:15:02;7.22;;;1.67;;
75890;SDS011;64571;47.512;19.054;2024-02-21T01:18:05;5.68;;;1.65;;
75890;SDS011;64571;47.512;19.054;2024-02-21T01:21:08;6.10;;;1.40;;
75890;SDS011;64571;47.512;19.054;2024-02-21T01:24:12;5.60;;;1.47;;
75890;SDS011;64571;47.512;19.054;2024-02-21T01:27:16;7.57;;;1.60;;
75890;SDS011;64571;47.512;19.054;2024-02-21T01:30:19;6.72;;;1.40;;
75890;SDS011;64571;47.512;19.054;2024-02-21T01:33:21;6.30;;;1.58;;
75890;SDS011;64571;47.512;19.054;2024-02-21T01:36:24;4.60;;;1.40;;
75890;SDS011;64571;47.512;19.054;2024-02-21T01:39:26;9.33;;;1.60;;
75890;SDS011;64571;47.512;19.054;2024-02-21T01:42:29;5.30;;;1.73;;
75890;SDS011;64571;47.512;19.054;2024-02-21T01:45:31;5.50;;;1.40;;
75890;SDS011;64571;47.512;19.054;2024-02-21T01:48:34;5.70;;;1.55;;
75890;SDS011;64571;47.512;19.054;2024-02-21T01:51:37;5.00;;;1.80;;
75890;SDS011;64571;47.512;19.054;2024-02-21T01:54:41;7.40;;;2.00;;
75890;SDS011;64571;47.512;19.054;2024-02-21T01:57:44;6.00;;;1.60;;
75890;SDS011;64571;47.512;19.054;2024-02-21T02:00:48;5.62;;;1.92;;
75890;SDS011;64571;47.512;19.054;2024-02-21T02:03:51;6.05;;;1.77;;
75890;SDS011;64571;47.512;19.054;2024-02-21T02:06:55;11.57;;;2.60;;
75890;SDS011;64571;47.512;19.054;2024-02-21T02:09:58;8.17;;;2.20;;
75890;SDS011;64571;47.512;19.054;2024-02-21T02:13:00;7.03;;;2.70;;
75890;SDS011;64571;47.512;19.054;2024-02-21T02:16:03;10.18;;;2.17;;
75890;SDS011;64571;47.512;19.054;2024-02-21T02:19:06;6.32;;;2.33;;
75890;SDS011;64571;47.512;19.054;2024-02-21T02:22:09;7.93;;;2.33;;
75890;SDS011;64571;47.512;19.054;2024-02-21T02:25:19;7.73;;;2.33;;
75890;SDS011;64571;47.512;19.054;2024-02-21T02:28:22;7.22;;;2.17;;
75890;SDS011;64571;47.512;19.054;2024-02-21T02:31:24;7.10;;;2.25;;
75890;SDS011;64571;47.512;19.054;2024-02-21T02:34:27;8.73;;;2.70;;
75890;SDS011;64571;47.512;19.054;2024-02-21T02:37:29;6.28;;;2.20;;
75890;SDS011;64571;47.512;19.054;2024-02-21T02:40:35;10.17;;;2.53;;
75890;SDS011;64571;47.512;19.054;2024-02-21T02:43:38;5.62;;;2.53;;
75890;SDS011;64571;47.512;19.054;2024-02-21T02:46:41;5.75;;;2.10;;
75890;SDS011;64571;47.512;19.054;2024-02-21T02:49:43;4.62;;;1.77;;
75890;SDS011;64571;47.512;19.054;2024-02-21T02:52:47;7.20;;;2.62;;
75890;SDS011;64571;47.512;19.054;2024-02-21T02:55:49;10.30;;;3.00;;
75890;SDS011;64571;47.512;19.054;2024-02-21T02:58:52;7.57;;;2.60;;
75890;SDS011;64571;47.512;19.054;2024-02-21T03:01:54;7.07;;;2.30;;
75890;SDS011;64571;47.512;19.054;2024-02-21T03:04:57;7.62;;;2.70;;
75890;SDS011;64571;47.512;19.054;2024-02-21T03:07:59;8.25;;;3.00;;
75890;SDS011;64571;47.512;19.054;2024-02-21T03:11:02;9.67;;;2.67;;
75890;SDS011;64571;47.512;19.054;2024-02-21T03:14:05;8.98;;;2.92;;
75890;SDS011;64571;47.512;19.054;2024-02-21T03:17:08;9.18;;;3.65;;
75890;SDS011;64571;47.512;19.054;2024-02-21T03:20:10;7.93;;;2.28;;
75890;SDS011;64571;47.512;19.054;2024-02-21T03:23:15;9.43;;;2.72;;
75890;SDS011;64571;47.512;19.054;2024-02-21T03:26:17;8.20;;;2.43;;
75890;SDS011;64571;47.512;19.054;2024-02-21T03:29:20;6.37;;;2.42;;
75890;SDS011;64571;47.512;19.054;2024-02-21T03:32:22;9.77;;;2.70;;
75890;SDS011;64571;47.512;19.054;2024-02-21T03:35:25;6.95;;;2.45;;
75890;SDS011;64571;47.512;19.054;2024-02-21T03:38:29;6.90;;;2.65;;
75890;SDS011;64571;47.512;19.054;2024-02-21T03:41:31;12.73;;;2.47;;
75890;SDS011;64571;47.512;19.054;2024-02-21T03:44:34;7.45;;;2.50;;
75890;SDS011;64571;47.512;19.054;2024-02-21T03:47:36;7.00;;;2.60;;
75890;SDS011;64571;47.512;19.054;2024-02-21T03:50:39;8.23;;;3.03;;
75890;SDS011;64571;47.512;19.054;2024-02-21T03:53:42;8.85;;;3.00;;
75890;SDS011;64571;47.512;19.054;2024-02-21T03:56:44;8.30;;;2.73;;
75890;SDS011;64571;47.512;19.054;2024-02-21T03:59:50;8.88;;;2.72;;
75890;SDS011;64571;47.512;19.054;2024-02-21T04:02:54;7.35;;;2.78;;
75890;SDS011;64571;47.512;19.054;2024-02-21T04:05:58;9.00;;;3.53;;
75890;SDS011;64571;47.512;19.054;2024-02-21T04:09:00;8.52;;;3.67;;
75890;SDS011;64571;47.512;19.054;2024-02-21T04:12:03;6.80;;;2.90;;
75890;SDS011;64571;47.512;19.054;2024-02-21T04:15:06;8.02;;;3.25;;
75890;SDS011;64571;47.512;19.054;2024-02-21T04:18:09;8.43;;;3.08;;
75890;SDS011;64571;47.512;19.054;2024-02-21T04:21:14;7.65;;;3.25;;
75890;SDS011;64571;47.512;19.054;2024-02-21T04:24:18;14.93;;;5.20;;
75890;SDS011;64571;47.512;19.054;2024-02-21T04:27:20;11.40;;;4.47;;
75890;SDS011;64571;47.512;19.054;2024-02-21T04:30:23;10.57;;;4.30;;
75890;SDS011;64571;47.512;19.054;2024-02-21T04:33:25;11.85;;;3.67;;
75890;SDS011;64571;47.512;19.054;2024-02-21T04:36:28;8.57;;;3.22;;
75890;SDS011;64571;47.512;19.054;2024-02-21T04:39:30;9.52;;;3.70;;
75890;SDS011;64571;47.512;19.054;2024-02-21T04:42:33;10.57;;;3.73;;
75890;SDS011;64571;47.512;19.054;2024-02-21T04:45:35;9.38;;;3.55;;
75890;SDS011;64571;47.512;19.054;2024-02-21T04:48:38;12.02;;;4.10;;
75890;SDS011;64571;47.512;19.054;2024-02-21T04:51:40;9.07;;;3.70;;
75890;SDS011;64571;47.512;19.054;2024-02-21T04:54:43;11.15;;;4.57;;
75890;SDS011;64571;47.512;19.054;2024-02-21T04:57:45;8.87;;;3.60;;
75890;SDS011;64571;47.512;19.054;2024-02-21T05:00:48;9.20;;;3.60;;
75890;SDS011;64571;47.512;19.054;2024-02-21T05:03:51;9.90;;;3.90;;
75890;SDS011;64571;47.512;19.054;2024-02-21T05:06:53;9.07;;;4.05;;
75890;SDS011;64571;47.512;19.054;2024-02-21T05:09:56;9.95;;;3.97;;
75890;SDS011;64571;47.512;19.054;2024-02-21T05:12:59;10.90;;;3.40;;
75890;SDS011;64571;47.512;19.054;2024-02-21T05:16:01;13.40;;;4.07;;
75890;SDS011;64571;47.512;19.054;2024-02-21T05:19:05;10.70;;;3.70;;
75890;SDS011;64571;47.512;19.054;2024-02-21T05:22:08;9.52;;;3.90;;
75890;SDS011;64571;47.512;19.054;2024-02-21T05:25:11;9.45;;;4.15;;
75890;SDS011;64571;47.512;19.054;2024-02-21T05:28:13;8.70;;;3.63;;
75890;SDS011;64571;47.512;19.054;2024-02-21T05:31:17;9.30;;;4.00;;
75890;SDS011;64571;47.512;19.054;2024-02-21T05:34:20;9.63;;;3.75;;
75890;SDS011;64571;47.512;19.054;2024-02-21T05:37:24;10.18;;;4.15;;
75890;SDS011;64571;47.512;19.054;2024-02-21T05:40:26;16.55;;;4.55;;
75890;SDS011;64571;47.512;19.054;2024-02-21T05:43:29;9.60;;;4.13;;
75890;SDS011;64571;47.512;19.054;2024-02-21T05:46:31;12.13;;;4.47;;
75890;SDS011;64571;47.512;19.054;2024-02-21T05:49:34;11.68;;;5.35;;
75890;SDS011;64571;47.512;19.054;2024-02-21T05:52:37;11.65;;;4.03;;
75890;SDS011;64571;47.512;19.054;2024-02-21T05:55:40;9.40;;;4.00;;
75890;SDS011;64571;47.512;19.054;2024-02-21T05:58:43;10.47;;;3.40;;
75890;SDS011;64571;47.512;19.054;2024-02-21T06:01:54;10.13;;;3.67;;
75890;SDS011;64571;47.512;19.054;2024-02-21T06:04:58;10.85;;;4.10;;
75890;SDS011;64571;47.512;19.054;2024-02-21T06:08:01;9.77;;;3.67;;
75890;SDS011;64571;47.512;19.054;2024-02-21T06:11:04;7.47;;;3.03;;
75890;SDS011;64571;47.512;19.054;2024-02-21T06:14:06;7.50;;;3.37;;
75890;SDS011;64571;47.512;19.054;2024-02-21T06:17:09;9.07;;;3.42;;
75890;SDS011;64571;47.512;19.054;2024-02-21T06:20:12;7.87;;;3.58;;
75890;SDS011;64571;47.512;19.054;2024-02-21T06:23:17;9.57;;;3.70;;
75890;SDS011;64571;47.512;19.054;2024-02-21T06:26:19;13.77;;;4.22;;
75890;SDS011;64571;47.512;19.054;2024-02-21T06:29:22;8.20;;;3.30;;
75890;SDS011;64571;47.512;19.054;2024-02-21T06:32:24;11.88;;;4.05;;
75890;SDS011;64571;47.512;19.054;2024-02-21T06:35:27;6.90;;;2.62;;
75890;SDS011;64571;47.512;19.054;2024-02-21T06:38:30;8.75;;;3.40;;
75890;SDS011;64571;47.512;19.054;2024-02-21T06:41:33;9.35;;;3.45;;
75890;SDS011;64571;47.512;19.054;2024-02-21T06:44:36;8.67;;;3.50;;
75890;SDS011;64571;47.512;19.054;2024-02-21T06:47:43;18.77;;;4.07;;
75890;SDS011;64571;47.512;19.054;2024-02-21T06:50:46;8.75;;;3.62;;
75890;SDS011;64571;47.512;19.054;2024-02-21T06:53:49;9.88;;;3.55;;
75890;SDS011;64571;47.512;19.054;2024-02-21T06:56:51;11.65;;;4.10;;
75890;SDS011;64571;47.512;19.054;2024-02-21T06:59:54;8.50;;;3.27;;
75890;SDS011;64571;47.512;19.054;2024-02-21T07:02:57;9.73;;;3.40;;
75890;SDS011;64571;47.512;19.054;2024-02-21T07:06:00;14.35;;;4.03;;
75890;SDS011;64571;47.512;19.054;2024-02-21T07:09:03;8.60;;;3.15;;
75890;SDS011;64571;47.512;19.054;2024-02-21T07:12:06;10.23;;;3.25;;
75890;SDS011;64571;47.512;19.054;2024-02-21T07:15:09;8.03;;;3.33;;
75890;SDS011;64571;47.512;19.054;2024-02-21T07:18:11;11.63;;;2.90;;
75890;SDS011;64571;47.512;19.054;2024-02-21T07:21:14;10.38;;;2.83;;
75890;SDS011;64571;47.512;19.054;2024-02-21T07:24:19;9.02;;;3.15;;
75890;SDS011;64571;47.512;19.054;2024-02-21T07:27:22;9.23;;;4.12;;
75890;SDS011;64571;47.512;19.054;2024-02-21T07:30:24;12.90;;;3.70;;
75890;SDS011;64571;47.512;19.054;2024-02-21T07:33:27;10.85;;;4.00;;
75890;SDS011;64571;47.512;19.054;2024-02-21T07:36:29;11.57;;;4.00;;
75890;SDS011;64571;47.512;19.054;2024-02-21T07:39:35;14.18;;;4.65;;
75890;SDS011;64571;47.512;19.054;2024-02-21T07:42:40;10.73;;;5.45;;
75890;SDS011;64571;47.512;19.054;2024-02-21T07:45:42;12.73;;;3.43;;
75890;SDS011;64571;47.512;19.054;2024-02-21T07:48:45;10.57;;;3.58;;
75890;SDS011;64571;47.512;19.054;2024-02-21T07:51:48;10.95;;;2.75;;
75890;SDS011;64571;47.512;19.054;2024-02-21T07:54:51;9.35;;;3.08;;
75890;SDS011;64571;47.512;19.054;2024-02-21T07:57:54;11.45;;;3.75;;
75890;SDS011;64571;47.512;19.054;2024-02-21T08:00:57;11.50;;;3.30;;
75890;SDS011;64571;47.512;19.054;2024-02-21T08:04:00;8.20;;;3.10;;
75890;SDS011;64571;47.512;19.054;2024-02-21T08:07:04;8.57;;;2.67;;
75890;SDS011;64571;47.512;19.054;2024-02-21T08:10:07;10.25;;;2.97;;
75890;SDS011;64571;47.512;19.054;2024-02-21T08:13:10;8.82;;;2.67;;
75890;SDS011;64571;47.512;19.054;2024-02-21T08:16:13;11.87;;;3.30;;
75890;SDS011;64571;47.512;19.054;2024-02-21T08:19:15;9.77;;;2.50;;
75890;SDS011;64571;47.512;19.054;2024-02-21T08:22:18;12.90;;;4.03;;
75890;SDS011;64571;47.512;19.054;2024-02-21T08:25:21;10.35;;;3.22;;
75890;SDS011;64571;47.512;19.054;2024-02-21T08:28:24;10.50;;;4.22;;
75890;SDS011;64571;47.512;19.054;2024-02-21T08:31:29;9.90;;;3.00;;
75890;SDS011;64571;47.512;19.054;2024-02-21T08:34:34;8.93;;;2.55;;
75890;SDS011;64571;47.512;19.054;2024-02-21T08:37:37;12.65;;;4.90;;
75890;SDS011;64571;47.512;19.054;2024-02-21T08:40:40;7.37;;;2.72;;
75890;SDS011;64571;47.512;19.054;2024-02-21T08:43:42;8.52;;;2.53;;
75890;SDS011;64571;47.512;19.054;2024-02-21T08:46:45;8.33;;;2.60;;
75890;SDS011;64571;47.512;19.054;2024-02-21T08:49:49;11.02;;;2.85;;
75890;SDS011;64571;47.512;19.054;2024-02-21T08:52:52;9.80;;;2.72;;
75890;SDS011;64571;47.512;19.054;2024-02-21T08:55:55;15.48;;;3.53;;
75890;SDS011;64571;47.512;19.054;2024-02-21T08:58:58;11.45;;;3.22;;
75890;SDS011;64571;47.512;19.054;2024-02-21T09:02:00;8.70;;;2.70;;
75890;SDS011;64571;47.512;19.054;2024-02-21T09:05:05;7.53;;;2.55;;
75890;SDS011;64571;47.512;19.054;2024-02-21T09:08:08;12.07;;;3.17;;
75890;SDS011;64571;47.512;19.054;2024-02-21T09:11:11;8.02;;;2.92;;
75890;SDS011;64571;47.512;19.054;2024-02-21T09:14:14;8.45;;;2.50;;
75890;SDS011;64571;47.512;19.054;2024-02-21T09:17:16;8.07;;;2.63;;
75890;SDS011;64571;47.512;19.054;2024-02-21T09:20:22;9.95;;;2.90;;
75890;SDS011;64571;47.512;19.054;2024-02-21T09:23:25;9.75;;;3.12;;
75890;SDS011;64571;47.512;19.054;2024-02-21T09:26:28;9.68;;;2.70;;
75890;SDS011;64571;47.512;19.054;2024-02-21T09:29:31;12.23;;;2.78;;
75890;SDS011;64571;47.512;19.054;2024-02-21T09:32:35;9.07;;;2.83;;
75890;SDS011;64571;47.512;19.054;2024-02-21T09:35:38;9.82;;;3.03;;
75890;SDS011;64571;47.512;19.054;2024-02-21T09:38:41;10.35;;;3.20;;
75890;SDS011;64571;47.512;19.054;2024-02-21T09:41:53;8.68;;;2.78;;
75890;SDS011;64571;47.512;19.054;2024-02-21T09:44:58;11.18;;;3.28;;
75890;SDS011;64571;47.512;19.054;2024-02-21T09:51:16;8.38;;;2.50;;
75890;SDS011;64571;47.512;19.054;2024-02-21T09:54:20;13.50;;;3.65;;
75890;SDS011;64571;47.512;19.054;2024-02-21T09:57:23;9.18;;;3.22;;
75890;SDS011;64571;47.512;19.054;2024-02-21T10:00:27;10.68;;;3.37;;
75890;SDS011;64571;47.512;19.054;2024-02-21T10:03:30;12.60;;;3.57;;
75890;SDS011;64571;47.512;19.054;2024-02-21T10:06:33;9.93;;;2.50;;
75890;SDS011;64571;47.512;19.054;2024-02-21T10:09:37;7.82;;;2.78;;
75890;SDS011;64571;47.512;19.054;2024-02-21T10:12:52;10.40;;;4.00;;
75890;SDS011;64571;47.512;19.054;2024-02-21T10:16:07;11.50;;;3.15;;
75890;SDS011;64571;47.512;19.054;2024-02-21T10:19:17;8.87;;;3.20;;
75890;SDS011;64571;47.512;19.054;2024-02-21T10:22:20;11.77;;;3.12;;
75890;SDS011;64571;47.512;19.054;2024-02-21T10:25:23;7.97;;;2.62;;
75890;SDS011;64571;47.512;19.054;2024-02-21T10:28:26;9.32;;;3.05;;
75890;SDS011;64571;47.512;19.054;2024-02-21T10:31:28;9.57;;;2.95;;
75890;SDS011;64571;47.512;19.054;2024-02-21T10:34:31;8.33;;;2.30;;
75890;SDS011;64571;47.512;19.054;2024-02-21T10:37:34;8.57;;;2.65;;
75890;SDS011;64571;47.512;19.054;2024-02-21T10:40:37;11.68;;;3.45;;
75890;SDS011;64571;47.512;19.054;2024-02-21T10:43:40;8.43;;;2.95;;
75890;SDS011;64571;47.512;19.054;2024-02-21T10:46:43;10.55;;;3.15;;
75890;SDS011;64571;47.512;19.054;2024-02-21T10:49:49;8.80;;;2.60;;
75890;SDS011;64571;47.512;19.054;2024-02-21T10:53:07;10.30;;;2.65;;
75890;SDS011;64571;47.512;19.054;2024-02-21T10:56:29;11.65;;;3.75;;
75890;SDS011;64571;47.512;19.054;2024-02-21T10:59:39;9.02;;;2.92;;
75890;SDS011;64571;47.512;19.054;2024-02-21T11:02:44;11.23;;;2.58;;
75890;SDS011;64571;47.512;19.054;2024-02-21T11:05:49;10.77;;;2.77;;
75890;SDS011;64571;47.512;19.054;2024-02-21T11:09:09;8.88;;;2.95;;
75890;SDS011;64571;47.512;19.054;2024-02-21T11:12:13;9.63;;;2.92;;
75890;SDS011;64571;47.512;19.054;2024-02-21T11:15:26;10.30;;;3.42;;
75890;SDS011;64571;47.512;19.054;2024-02-21T11:18:29;7.40;;;2.37;;
75890;SDS011;64571;47.512;19.054;2024-02-21T11:21:32;9.20;;;2.97;;
75890;SDS011;64571;47.512;19.054;2024-02-21T11:24:37;11.27;;;2.92;;
75890;SDS011;64571;47.512;19.054;2024-02-21T11:27:45;7.03;;;2.72;;
75890;SDS011;64571;47.512;19.054;2024-02-21T11:30:48;11.77;;;3.42;;
75890;SDS011;64571;47.512;19.054;2024-02-21T11:33:53;14.15;;;5.07;;
75890;SDS011;64571;47.512;19.054;2024-02-21T11:36:56;9.17;;;2.93;;
75890;SDS011;64571;47.512;19.054;2024-02-21T11:39:59;11.20;;;3.00;;
75890;SDS011;64571;47.512;19.054;2024-02-21T11:43:02;8.82;;;2.60;;
75890;SDS011;64571;47.512;19.054;2024-02-21T11:46:05;9.73;;;2.78;;
75890;SDS011;64571;47.512;19.054;2024-02-21T11:49:09;12.07;;;2.70;;
75890;SDS011;64571;47.512;19.054;2024-02-21T11:52:12;10.87;;;4.00;;
75890;SDS011;64571;47.512;19.054;2024-02-21T11:55:18;10.10;;;3.37;;
75890;SDS011;64571;47.512;19.054;2024-02-21T11:58:20;11.18;;;3.45;;
75890;SDS011;64571;47.512;19.054;2024-02-21T12:01:23;10.85;;;3.17;;
75890;SDS011;64571;47.512;19.054;2024-02-21T12:04:27;10.15;;;3.97;;
75890;SDS011;64571;47.512;19.054;2024-02-21T12:07:31;12.03;;;3.70;;
75890;SDS011;64571;47.512;19.054;2024-02-21T12:10:35;9.57;;;3.37;;
75890;SDS011;64571;47.512;19.054;2024-02-21T12:13:38;9.32;;;3.35;;
75890;SDS011;64571;47.512;19.054;2024-02-21T12:16:41;9.70;;;3.25;;
75890;SDS011;64571;47.512;19.054;2024-02-21T12:19:44;11.30;;;3.20;;
75890;SDS011;64571;47.512;19.054;2024-02-21T12:22:49;12.23;;;3.13;;
75890;SDS011;64571;47.512;19.054;2024-02-21T12:25:52;6.28;;;2.50;;
75890;SDS011;64571;47.512;19.054;2024-02-21T12:28:56;8.63;;;2.87;;
75890;SDS011;64571;47.512;19.054;2024-02-21T12:31:59;11.27;;;2.37;;
75890;SDS011;64571;47.512;19.054;2024-02-21T12:35:02;10.68;;;2.72;;
75890;SDS011;64571;47.512;19.054;2024-02-21T12:38:06;7.53;;;2.50;;
75890;SDS011;64571;47.512;19.054;2024-02-21T12:41:09;9.70;;;2.60;;
75890;SDS011;64571;47.512;19.054;2024-02-21T12:44:11;10.45;;;2.78;;
75890;SDS011;64571;47.512;19.054;2024-02-21T12:47:15;7.55;;;2.40;;
75890;SDS011;64571;47.512;19.054;2024-02-21T12:50:17;12.82;;;3.87;;
75890;SDS011;64571;47.512;19.054;2024-02-21T12:53:22;12.47;;;3.33;;
75890;SDS011;64571;47.512;19.054;2024-02-21T12:56:34;10.13;;;2.87;;
75890;SDS011;64571;47.512;19.054;2024-02-21T12:59:37;13.57;;;2.90;;
75890;SDS011;64571;47.512;19.054;2024-02-21T13:02:39;12.35;;;2.92;;
75890;SDS011;64571;47.512;19.054;2024-02-21T13:05:42;9.13;;;2.72;;
75890;SDS011;64571;47.512;19.054;2024-02-21T13:08:45;9.37;;;2.30;;
75890;SDS011;64571;47.512;19.054;2024-02-21T13:11:50;13.10;;;3.37;;
75890;SDS011;64571;47.512;19.054;2024-02-21T13:14:53;11.18;;;3.37;;
75890;SDS011;64571;47.512;19.054;2024-02-21T13:17:56;10.35;;;2.80;;
75890;SDS011;64571;47.512;19.054;2024-02-21T13:21:00;8.90;;;3.47;;
75890;SDS011;64571;47.512;19.054;2024-02-21T13:24:03;11.07;;;2.57;;
75890;SDS011;64571;47.512;19.054;2024-02-21T13:27:06;8.52;;;2.62;;
75890;SDS011;64571;47.512;19.054;2024-02-21T13:30:09;11.48;;;2.70;;
75890;SDS011;64571;47.512;19.054;2024-02-21T13:33:12;9.90;;;2.53;;
75890;SDS011;64571;47.512;19.054;2024-02-21T13:36:15;11.85;;;3.60;;
75890;SDS011;64571;47.512;19.054;2024-02-21T13:39:18;10.07;;;3.17;;
75890;SDS011;64571;47.512;19.054;2024-02-21T13:42:21;8.13;;;2.60;;
75890;SDS011;64571;47.512;19.054;2024-02-21T13:45:24;7.37;;;2.47;;
75890;SDS011;64571;47.512;19.054;2024-02-21T13:48:26;10.52;;;2.47;;
75890;SDS011;64571;47.512;19.054;2024-02-21T13:51:31;8.48;;;2.00;;
75890;SDS011;64571;47.512;19.054;2024-02-21T13:54:34;11.03;;;2.50;;
75890;SDS011;64571;47.512;19.054;2024-02-21T13:57:37;7.35;;;2.08;;
75890;SDS011;64571;47.512;19.054;2024-02-21T14:00:40;9.93;;;2.28;;
75890;SDS011;64571;47.512;19.054;2024-02-21T14:03:42;9.02;;;2.83;;
75890;SDS011;64571;47.512;19.054;2024-02-21T14:06:45;11.63;;;2.62;;
75890;SDS011;64571;47.512;19.054;2024-02-21T14:09:48;7.73;;;2.00;;
75890;SDS011;64571;47.512;19.054;2024-02-21T14:12:50;8.88;;;2.50;;
75890;SDS011;64571;47.512;19.054;2024-02-21T14:15:53;10.77;;;2.83;;
75890;SDS011;64571;47.512;19.054;2024-02-21T14:18:56;10.68;;;2.30;;
75890;SDS011;64571;47.512;19.054;2024-02-21T14:21:59;7.37;;;2.25;;
75890;SDS011;64571;47.512;19.054;2024-02-21T14:25:01;12.97;;;2.57;;
75890;SDS011;64571;47.512;19.054;2024-02-21T14:28:05;7.80;;;2.00;;
75890;SDS011;64571;47.512;19.054;2024-02-21T14:31:07;11.95;;;2.15;;
75890;SDS011;64571;47.512;19.054;2024-02-21T14:34:11;9.18;;;2.20;;
75890;SDS011;64571;47.512;19.054;2024-02-21T14:37:14;11.95;;;2.20;;
75890;SDS011;64571;47.512;19.054;2024-02-21T14:40:18;8.23;;;2.30;;
75890;SDS011;64571;47.512;19.054;2024-02-21T14:43:23;4.95;;;1.75;;
75890;SDS011;64571;47.512;19.054;2024-02-21T14:46:26;7.55;;;2.20;;
75890;SDS011;64571;47.512;19.054;2024-02-21T14:49:30;9.75;;;2.15;;
75890;SDS011;64571;47.512;19.054;2024-02-21T14:52:33;9.77;;;2.62;;
75890;SDS011;64571;47.512;19.054;2024-02-21T14:55:36;6.33;;;2.17;;
75890;SDS011;64571;47.512;19.054;2024-02-21T14:58:41;9.18;;;2.37;;
75890;SDS011;64571;47.512;19.054;2024-02-21T15:01:43;6.22;;;2.05;;
75890;SDS011;64571;47.512;19.054;2024-02-21T15:04:47;9.90;;;2.62;;
75890;SDS011;64571;47.512;19.054;2024-02-21T15:07:50;6.95;;;1.92;;
75890;SDS011;64571;47.512;19.054;2024-02-21T15:10:53;9.90;;;2.90;;
75890;SDS011;64571;47.512;19.054;2024-02-21T15:13:56;7.78;;;2.55;;
75890;SDS011;64571;47.512;19.054;2024-02-21T15:16:59;7.85;;;2.37;;
75890;SDS011;64571;47.512;19.054;2024-02-21T15:20:02;10.50;;;2.20;;
75890;SDS011;64571;47.512;19.054;2024-02-21T15:23:07;9.60;;;2.90;;
75890;SDS011;64571;47.512;19.054;2024-02-21T15:26:11;9.17;;;2.30;;
75890;SDS011;64571;47.512;19.054;2024-02-21T15:29:21;12.45;;;2.92;;
75890;SDS011;64571;47.512;19.054;2024-02-21T15:32:25;12.77;;;2.80;;
75890;SDS011;64571;47.512;19.054;2024-02-21T15:35:28;8.43;;;2.40;;
75890;SDS011;64571;47.512;19.054;2024-02-21T15:38:31;7.20;;;2.12;;
75890;SDS011;64571;47.512;19.054;2024-02-21T15:41:34;7.87;;;2.10;;
75890;SDS011;64571;47.512;19.054;2024-02-21T15:44:37;7.40;;;2.00;;
75890;SDS011;64571;47.512;19.054;2024-02-21T15:47:41;8.20;;;2.80;;
75890;SDS011;64571;47.512;19.054;2024-02-21T15:50:43;8.35;;;2.70;;
75890;SDS011;64571;47.512;19.054;2024-02-21T15:53:47;7.50;;;2.08;;
75890;SDS011;64571;47.512;19.054;2024-02-21T15:56:50;12.50;;;4.27;;
75890;SDS011;64571;47.512;19.054;2024-02-21T15:59:52;8.48;;;2.10;;
75890;SDS011;64571;47.512;19.054;2024-02-21T16:02:56;7.57;;;2.53;;
75890;SDS011;64571;47.512;19.054;2024-02-21T16:05:59;9.00;;;2.80;;
75890;SDS011;64571;47.512;19.054;2024-02-21T16:09:01;9.43;;;3.10;;
75890;SDS011;64571;47.512;19.054;2024-02-21T16:12:07;10.40;;;2.80;;
75890;SDS011;64571;47.512;19.054;2024-02-21T16:15:10;10.38;;;2.37;;
75890;SDS011;64571;47.512;19.054;2024-02-21T16:18:13;15.32;;;2.65;;
75890;SDS011;64571;47.512;19.054;2024-02-21T16:21:22;10.10;;;2.10;;
75890;SDS011;64571;47.512;19.054;2024-02-21T16:24:26;9.25;;;2.00;;
75890;SDS011;64571;47.512;19.054;2024-02-21T16:27:29;12.53;;;2.90;;
75890;SDS011;64571;47.512;19.054;2024-02-21T16:30:32;10.43;;;2.35;;
75890;SDS011;64571;47.512;19.054;2024-02-21T16:33:34;9.75;;;2.90;;
75890;SDS011;64571;47.512;19.054;2024-02-21T16:36:37;10.50;;;2.70;;
75890;SDS011;64571;47.512;19.054;2024-02-21T16:39:42;6.75;;;2.20;;
75890;SDS011;64571;47.512;19.054;2024-02-21T16:42:45;11.13;;;2.80;;
75890;SDS011;64571;47.512;19.054;2024-02-21T16:45:48;8.20;;;2.33;;
75890;SDS011;64571;47.512;19.054;2024-02-21T16:48:51;8.98;;;3.28;;
75890;SDS011;64571;47.512;19.054;2024-02-21T16:51:53;14.60;;;3.90;;
75890;SDS011;64571;47.512;19.054;2024-02-21T16:54:57;9.70;;;3.55;;
75890;SDS011;64571;47.512;19.054;2024-02-21T16:58:00;8.30;;;3.33;;
75890;SDS011;64571;47.512;19.054;2024-02-21T17:01:03;9.38;;;3.28;;
75890;SDS011;64571;47.512;19.054;2024-02-21T17:04:15;15.18;;;4.75;;
75890;SDS011;64571;47.512;19.054;2024-02-21T17:07:18;13.30;;;3.15;;
75890;SDS011;64571;47.512;19.054;2024-02-21T17:10:20;15.85;;;4.95;;
75890;SDS011;64571;47.512;19.054;2024-02-21T17:13:23;10.67;;;3.43;;
75890;SDS011;64571;47.512;19.054;2024-02-21T17:16:25;12.18;;;4.30;;
75890;SDS011;64571;47.512;19.054;2024-02-21T17:19:28;11.45;;;3.55;;
75890;SDS011;64571;47.512;19.054;2024-02-21T17:22:31;11.80;;;3.67;;
75890;SDS011;64571;47.512;19.054;2024-02-21T17:25:35;11.02;;;3.60;;
75890;SDS011;64571;47.512;19.054;2024-02-21T17:28:38;10.60;;;3.30;;
75890;SDS011;64571;47.512;19.054;2024-02-21T17:31:41;10.85;;;3.75;;
75890;SDS011;64571;47.512;19.054;2024-02-21T17:34:43;12.20;;;3.62;;
75890;SDS011;64571;47.512;19.054;2024-02-21T17:37:46;11.35;;;3.62;;
75890;SDS011;64571;47.512;19.054;2024-02-21T17:40:48;10.93;;;3.83;;
75890;SDS011;64571;47.512;19.054;2024-02-21T17:43:54;9.37;;;4.00;;
75890;SDS011;64571;47.512;19.054;2024-02-21T17:46:56;13.70;;;4.28;;
75890;SDS011;64571;47.512;19.054;2024-02-21T17:50:00;10.82;;;4.40;;
75890;SDS011;64571;47.512;19.054;2024-02-21T17:53:03;10.15;;;3.87;;
75890;SDS011;64571;47.512;19.054;2024-02-21T17:56:06;8.73;;;3.60;;
75890;SDS011;64571;47.512;19.054;2024-02-21T17:59:09;14.63;;;4.60;;
75890;SDS011;64571;47.512;19.054;2024-02-21T18:02:15;11.57;;;4.95;;
75890;SDS011;64571;47.512;19.054;2024-02-21T18:05:22;10.25;;;4.40;;